Estación Meteorológica Peña el Pijo (Robertgarden) [ 11/17/17 23:56:01 CET ]

Fecha Hora Presion(HPa) Temp (°C) Humedad % Rocio (°C) Viento ( m/s) Direccion Lluvia 1Hora(mm) Lluvia 24H(mm) LLuvia Total(mm)
2017-Aug-25 01:01:49 1014.200 18.1 59 9.9         1439.00
2017-Aug-25 02:01:55 1013.900 17.1 61 9.5         1439.00
2017-Aug-25 03:01:08 1013.400 16.8 57 8.2         1439.00
2017-Aug-25 04:01:12 1013.100 15.9 60 8.2         1439.00
2017-Aug-25 05:01:06 1012.900 14.9 63 7.9         1439.00
2017-Aug-25 06:01:08 1012.800 14.9 62 7.7         1439.00
2017-Aug-25 07:01:47 1012.600 14.3 63 7.3         1439.00
2017-Aug-25 08:01:56 1012.700 14.1 63 7.1         1439.00
2017-Aug-25 09:01:46 1012.600 18.5 61 10.8         1439.00
2017-Aug-25 10:01:59 1012.700 26.0 45 13.1         1439.00
2017-Aug-25 11:01:47 1012.900 31.9 32 13.1         1439.00
2017-Aug-25 12:01:44 1013.100 34.6 25 11.5         1439.00
2017-Aug-25 13:01:50 1012.500 34.6 24 10.8         1439.00
2017-Aug-25 14:01:43 1012.300 33.2 28 12.1         1439.00
2017-Aug-25 15:01:49 1012.000 28.9 38 13.1         1439.00
2017-Aug-25 16:01:39 1011.900 29.6 36 12.9         1439.00
2017-Aug-25 17:01:40 1012.100 26.9 47 14.6         1439.00
2017-Aug-25 18:01:42 1013.000 24.1 50 13.1         1439.00
2017-Aug-25 19:01:48 1012.800 21.8 72 16.5     0.51 0.51 1439.52
2017-Aug-25 20:01:43 1012.600 21.9 77 17.7       0.51 1439.52
2017-Aug-25 21:01:58 1012.700 21.4 77 17.2       0.51 1439.52
2017-Aug-25 22:01:34 1012.700 19.4 75 14.8       0.51 1439.52
2017-Aug-25 23:01:48 1012.800 18.9 73 13.9       0.51 1439.52

Temperatura Máxima:34°    Temperatura Mínima:14°
Presión Máxima:1014.200 Hpa    Presión Mínima:1011.900 Hpa


Volver